sensor_id;sensor_type;location;lat;lon;timestamp;P1;durP1;ratioP1;P2;durP2;ratioP2
32347;SDS011;18821;44.800;10.326;2024-03-23T00:53:48;14.05;;;8.88;;
32347;SDS011;18821;44.800;10.326;2024-03-23T00:56:13;17.48;;;9.07;;
32347;SDS011;18821;44.800;10.326;2024-03-23T00:58:39;16.02;;;8.82;;
32347;SDS011;18821;44.800;10.326;2024-03-23T01:01:05;17.42;;;8.82;;
32347;SDS011;18821;44.800;10.326;2024-03-23T01:03:31;13.57;;;8.75;;
32347;SDS011;18821;44.800;10.326;2024-03-23T01:06:00;20.67;;;8.55;;
32347;SDS011;18821;44.800;10.326;2024-03-23T01:08:26;18.52;;;8.90;;
32347;SDS011;18821;44.800;10.326;2024-03-23T01:10:55;13.27;;;8.05;;
32347;SDS011;18821;44.800;10.326;2024-03-23T01:13:22;18.75;;;9.18;;
32347;SDS011;18821;44.800;10.326;2024-03-23T01:15:52;18.38;;;9.15;;
32347;SDS011;18821;44.800;10.326;2024-03-23T01:18:19;15.90;;;9.02;;
32347;SDS011;18821;44.800;10.326;2024-03-23T01:20:45;14.90;;;8.55;;
32347;SDS011;18821;44.800;10.326;2024-03-23T01:23:11;14.35;;;8.25;;
32347;SDS011;18821;44.800;10.326;2024-03-23T01:25:37;11.68;;;7.57;;
32347;SDS011;18821;44.800;10.326;2024-03-23T01:28:03;16.63;;;8.18;;
32347;SDS011;18821;44.800;10.326;2024-03-23T01:30:29;14.40;;;7.57;;
32347;SDS011;18821;44.800;10.326;2024-03-23T01:32:56;14.20;;;7.35;;
32347;SDS011;18821;44.800;10.326;2024-03-23T01:35:21;13.63;;;7.63;;
32347;SDS011;18821;44.800;10.326;2024-03-23T01:37:47;12.85;;;8.57;;
32347;SDS011;18821;44.800;10.326;2024-03-23T01:40:13;14.75;;;7.85;;
32347;SDS011;18821;44.800;10.326;2024-03-23T01:42:41;11.70;;;6.90;;
32347;SDS011;18821;44.800;10.326;2024-03-23T01:45:07;11.38;;;6.13;;
32347;SDS011;18821;44.800;10.326;2024-03-23T01:47:35;13.88;;;6.75;;
32347;SDS011;18821;44.800;10.326;2024-03-23T01:50:01;13.07;;;6.13;;
32347;SDS011;18821;44.800;10.326;2024-03-23T01:52:27;11.98;;;6.72;;
32347;SDS011;18821;44.800;10.326;2024-03-23T01:54:53;10.95;;;6.28;;
32347;SDS011;18821;44.800;10.326;2024-03-23T01:57:19;10.57;;;6.68;;
32347;SDS011;18821;44.800;10.326;2024-03-23T01:59:46;12.60;;;6.63;;
32347;SDS011;18821;44.800;10.326;2024-03-23T02:02:16;8.80;;;6.15;;
32347;SDS011;18821;44.800;10.326;2024-03-23T02:04:43;11.43;;;7.00;;
32347;SDS011;18821;44.800;10.326;2024-03-23T02:07:09;14.05;;;5.97;;
32347;SDS011;18821;44.800;10.326;2024-03-23T02:09:35;15.13;;;7.43;;
32347;SDS011;18821;44.800;10.326;2024-03-23T02:12:01;13.02;;;7.13;;
32347;SDS011;18821;44.800;10.326;2024-03-23T02:14:28;11.85;;;6.50;;
32347;SDS011;18821;44.800;10.326;2024-03-23T02:16:54;11.00;;;7.15;;
32347;SDS011;18821;44.800;10.326;2024-03-23T02:19:20;12.27;;;7.28;;
32347;SDS011;18821;44.800;10.326;2024-03-23T02:21:45;12.15;;;7.40;;
32347;SDS011;18821;44.800;10.326;2024-03-23T02:24:12;12.23;;;7.55;;
32347;SDS011;18821;44.800;10.326;2024-03-23T02:26:38;11.88;;;7.45;;
32347;SDS011;18821;44.800;10.326;2024-03-23T02:29:04;11.13;;;7.53;;
32347;SDS011;18821;44.800;10.326;2024-03-23T02:31:30;12.05;;;7.10;;
32347;SDS011;18821;44.800;10.326;2024-03-23T02:33:56;11.60;;;6.68;;
32347;SDS011;18821;44.800;10.326;2024-03-23T02:36:22;10.70;;;7.15;;
32347;SDS011;18821;44.800;10.326;2024-03-23T02:38:47;14.52;;;6.72;;
32347;SDS011;18821;44.800;10.326;2024-03-23T02:41:13;10.23;;;7.15;;
32347;SDS011;18821;44.800;10.326;2024-03-23T02:43:39;10.88;;;7.38;;
32347;SDS011;18821;44.800;10.326;2024-03-23T02:46:05;11.95;;;6.90;;
32347;SDS011;18821;44.800;10.326;2024-03-23T02:48:32;8.75;;;6.22;;
32347;SDS011;18821;44.800;10.326;2024-03-23T02:50:58;10.57;;;6.78;;
32347;SDS011;18821;44.800;10.326;2024-03-23T02:53:24;13.20;;;6.63;;
32347;SDS011;18821;44.800;10.326;2024-03-23T02:55:50;9.95;;;5.88;;
32347;SDS011;18821;44.800;10.326;2024-03-23T02:58:16;9.73;;;5.82;;
32347;SDS011;18821;44.800;10.326;2024-03-23T03:00:41;13.07;;;6.03;;
32347;SDS011;18821;44.800;10.326;2024-03-23T03:03:07;8.13;;;5.43;;
32347;SDS011;18821;44.800;10.326;2024-03-23T03:05:34;9.57;;;5.45;;
32347;SDS011;18821;44.800;10.326;2024-03-23T03:08:00;10.68;;;5.75;;
32347;SDS011;18821;44.800;10.326;2024-03-23T03:10:25;11.52;;;6.32;;
32347;SDS011;18821;44.800;10.326;2024-03-23T03:12:51;9.25;;;6.05;;
32347;SDS011;18821;44.800;10.326;2024-03-23T03:15:17;10.80;;;6.03;;
32347;SDS011;18821;44.800;10.326;2024-03-23T03:17:43;10.70;;;6.03;;
32347;SDS011;18821;44.800;10.326;2024-03-23T03:20:10;9.82;;;5.50;;
32347;SDS011;18821;44.800;10.326;2024-03-23T03:22:38;10.23;;;5.75;;
32347;SDS011;18821;44.800;10.326;2024-03-23T03:25:05;8.93;;;5.25;;
32347;SDS011;18821;44.800;10.326;2024-03-23T03:27:32;9.48;;;5.32;;
32347;SDS011;18821;44.800;10.326;2024-03-23T03:29:59;10.70;;;5.68;;
32347;SDS011;18821;44.800;10.326;2024-03-23T03:32:30;8.88;;;4.97;;
32347;SDS011;18821;44.800;10.326;2024-03-23T03:34:56;9.68;;;5.22;;
32347;SDS011;18821;44.800;10.326;2024-03-23T03:37:22;16.52;;;5.10;;
32347;SDS011;18821;44.800;10.326;2024-03-23T03:39:48;7.60;;;5.30;;
32347;SDS011;18821;44.800;10.326;2024-03-23T03:42:14;8.43;;;5.10;;
32347;SDS011;18821;44.800;10.326;2024-03-23T03:44:40;9.10;;;4.68;;
32347;SDS011;18821;44.800;10.326;2024-03-23T03:47:06;11.07;;;5.38;;
32347;SDS011;18821;44.800;10.326;2024-03-23T03:49:32;10.70;;;5.72;;
32347;SDS011;18821;44.800;10.326;2024-03-23T03:51:58;8.57;;;5.28;;
32347;SDS011;18821;44.800;10.326;2024-03-23T03:54:26;6.50;;;4.68;;
32347;SDS011;18821;44.800;10.326;2024-03-23T03:56:52;8.55;;;5.03;;
32347;SDS011;18821;44.800;10.326;2024-03-23T03:59:18;9.27;;;4.93;;
32347;SDS011;18821;44.800;10.326;2024-03-23T04:01:45;9.13;;;4.93;;
32347;SDS011;18821;44.800;10.326;2024-03-23T04:04:11;11.60;;;5.53;;
32347;SDS011;18821;44.800;10.326;2024-03-23T04:06:37;11.18;;;5.60;;
32347;SDS011;18821;44.800;10.326;2024-03-23T04:09:04;12.02;;;5.72;;
32347;SDS011;18821;44.800;10.326;2024-03-23T04:11:29;12.25;;;6.25;;
32347;SDS011;18821;44.800;10.326;2024-03-23T04:13:55;11.38;;;6.60;;
32347;SDS011;18821;44.800;10.326;2024-03-23T04:16:28;11.85;;;6.68;;
32347;SDS011;18821;44.800;10.326;2024-03-23T04:18:55;11.93;;;6.93;;
32347;SDS011;18821;44.800;10.326;2024-03-23T04:21:21;12.52;;;7.18;;
32347;SDS011;18821;44.800;10.326;2024-03-23T04:23:48;12.65;;;7.07;;
32347;SDS011;18821;44.800;10.326;2024-03-23T04:26:14;12.35;;;6.20;;
32347;SDS011;18821;44.800;10.326;2024-03-23T04:28:40;10.90;;;6.03;;
32347;SDS011;18821;44.800;10.326;2024-03-23T04:31:06;18.58;;;7.20;;
32347;SDS011;18821;44.800;10.326;2024-03-23T04:33:32;14.38;;;6.25;;
32347;SDS011;18821;44.800;10.326;2024-03-23T04:35:58;10.13;;;6.05;;
32347;SDS011;18821;44.800;10.326;2024-03-23T04:38:24;11.32;;;6.18;;
32347;SDS011;18821;44.800;10.326;2024-03-23T04:40:56;11.15;;;5.78;;
32347;SDS011;18821;44.800;10.326;2024-03-23T04:43:22;12.15;;;6.93;;
32347;SDS011;18821;44.800;10.326;2024-03-23T04:45:48;12.18;;;5.95;;
32347;SDS011;18821;44.800;10.326;2024-03-23T04:48:14;9.88;;;6.30;;
32347;SDS011;18821;44.800;10.326;2024-03-23T04:50:40;11.30;;;6.55;;
32347;SDS011;18821;44.800;10.326;2024-03-23T04:53:07;9.38;;;6.20;;
32347;SDS011;18821;44.800;10.326;2024-03-23T04:55:33;14.35;;;5.88;;
32347;SDS011;18821;44.800;10.326;2024-03-23T04:57:58;10.80;;;5.53;;
32347;SDS011;18821;44.800;10.326;2024-03-23T05:00:25;11.95;;;6.45;;
32347;SDS011;18821;44.800;10.326;2024-03-23T05:02:51;11.85;;;6.22;;
32347;SDS011;18821;44.800;10.326;2024-03-23T05:05:18;10.85;;;5.50;;
32347;SDS011;18821;44.800;10.326;2024-03-23T05:07:44;8.35;;;5.85;;
32347;SDS011;18821;44.800;10.326;2024-03-23T05:10:10;17.67;;;6.13;;
32347;SDS011;18821;44.800;10.326;2024-03-23T05:12:39;13.93;;;5.90;;
32347;SDS011;18821;44.800;10.326;2024-03-23T05:15:05;22.08;;;12.20;;
32347;SDS011;18821;44.800;10.326;2024-03-23T05:17:33;21.65;;;11.65;;
32347;SDS011;18821;44.800;10.326;2024-03-23T05:19:59;21.58;;;10.95;;
32347;SDS011;18821;44.800;10.326;2024-03-23T05:22:25;18.60;;;10.65;;
32347;SDS011;18821;44.800;10.326;2024-03-23T05:24:52;31.13;;;12.48;;
32347;SDS011;18821;44.800;10.326;2024-03-23T05:27:18;25.88;;;11.27;;
32347;SDS011;18821;44.800;10.326;2024-03-23T05:29:44;22.02;;;10.75;;
32347;SDS011;18821;44.800;10.326;2024-03-23T05:32:10;67.70;;;14.32;;
32347;SDS011;18821;44.800;10.326;2024-03-23T05:34:36;23.23;;;13.43;;
32347;SDS011;18821;44.800;10.326;2024-03-23T05:37:02;28.48;;;12.57;;
32347;SDS011;18821;44.800;10.326;2024-03-23T05:39:28;27.17;;;12.20;;
32347;SDS011;18821;44.800;10.326;2024-03-23T05:41:53;15.20;;;8.60;;
32347;SDS011;18821;44.800;10.326;2024-03-23T05:44:19;20.45;;;9.38;;
32347;SDS011;18821;44.800;10.326;2024-03-23T05:46:45;17.92;;;8.90;;
32347;SDS011;18821;44.800;10.326;2024-03-23T05:49:15;14.63;;;7.65;;
32347;SDS011;18821;44.800;10.326;2024-03-23T05:51:43;10.70;;;5.93;;
32347;SDS011;18821;44.800;10.326;2024-03-23T05:54:09;15.65;;;6.13;;
32347;SDS011;18821;44.800;10.326;2024-03-23T05:56:35;14.05;;;6.20;;
32347;SDS011;18821;44.800;10.326;2024-03-23T05:59:01;12.32;;;5.60;;
32347;SDS011;18821;44.800;10.326;2024-03-23T06:01:28;6.72;;;4.85;;
32347;SDS011;18821;44.800;10.326;2024-03-23T06:03:55;9.93;;;5.57;;
32347;SDS011;18821;44.800;10.326;2024-03-23T06:06:21;10.50;;;5.13;;
32347;SDS011;18821;44.800;10.326;2024-03-23T06:08:48;11.88;;;5.68;;
32347;SDS011;18821;44.800;10.326;2024-03-23T06:11:14;9.20;;;5.53;;
32347;SDS011;18821;44.800;10.326;2024-03-23T06:13:39;12.43;;;5.88;;
32347;SDS011;18821;44.800;10.326;2024-03-23T06:16:05;8.48;;;6.13;;
32347;SDS011;18821;44.800;10.326;2024-03-23T06:18:32;10.07;;;5.25;;
32347;SDS011;18821;44.800;10.326;2024-03-23T06:20:58;13.32;;;6.38;;
32347;SDS011;18821;44.800;10.326;2024-03-23T06:23:24;12.18;;;5.85;;
32347;SDS011;18821;44.800;10.326;2024-03-23T06:25:49;11.55;;;6.70;;
32347;SDS011;18821;44.800;10.326;2024-03-23T06:28:15;13.13;;;7.38;;
32347;SDS011;18821;44.800;10.326;2024-03-23T06:30:41;13.82;;;7.32;;
32347;SDS011;18821;44.800;10.326;2024-03-23T06:33:07;14.85;;;8.15;;
32347;SDS011;18821;44.800;10.326;2024-03-23T06:35:33;17.67;;;7.43;;
32347;SDS011;18821;44.800;10.326;2024-03-23T06:37:59;15.10;;;8.32;;
32347;SDS011;18821;44.800;10.326;2024-03-23T06:40:25;12.63;;;7.00;;
32347;SDS011;18821;44.800;10.326;2024-03-23T06:42:50;18.15;;;7.60;;
32347;SDS011;18821;44.800;10.326;2024-03-23T06:45:16;14.23;;;8.00;;
32347;SDS011;18821;44.800;10.326;2024-03-23T06:47:48;14.63;;;8.02;;
32347;SDS011;18821;44.800;10.326;2024-03-23T06:50:15;19.20;;;9.82;;
32347;SDS011;18821;44.800;10.326;2024-03-23T06:52:41;21.25;;;11.73;;
32347;SDS011;18821;44.800;10.326;2024-03-23T06:55:07;20.23;;;10.35;;
32347;SDS011;18821;44.800;10.326;2024-03-23T06:57:33;22.02;;;10.18;;
32347;SDS011;18821;44.800;10.326;2024-03-23T06:59:59;21.80;;;9.95;;
32347;SDS011;18821;44.800;10.326;2024-03-23T07:02:25;20.27;;;9.63;;
32347;SDS011;18821;44.800;10.326;2024-03-23T07:04:51;23.02;;;10.55;;
32347;SDS011;18821;44.800;10.326;2024-03-23T07:07:17;13.10;;;8.50;;
32347;SDS011;18821;44.800;10.326;2024-03-23T07:09:43;11.85;;;7.43;;
32347;SDS011;18821;44.800;10.326;2024-03-23T07:12:09;9.05;;;5.50;;
32347;SDS011;18821;44.800;10.326;2024-03-23T07:14:34;13.38;;;6.50;;
32347;SDS011;18821;44.800;10.326;2024-03-23T07:17:00;15.50;;;4.97;;
32347;SDS011;18821;44.800;10.326;2024-03-23T07:19:26;8.82;;;5.63;;
32347;SDS011;18821;44.800;10.326;2024-03-23T07:21:53;14.85;;;5.75;;
32347;SDS011;18821;44.800;10.326;2024-03-23T07:24:19;9.30;;;5.45;;
32347;SDS011;18821;44.800;10.326;2024-03-23T07:26:45;8.10;;;5.15;;
32347;SDS011;18821;44.800;10.326;2024-03-23T07:29:11;8.95;;;5.60;;
32347;SDS011;18821;44.800;10.326;2024-03-23T07:31:36;12.50;;;5.80;;
32347;SDS011;18821;44.800;10.326;2024-03-23T07:34:04;8.55;;;5.75;;
32347;SDS011;18821;44.800;10.326;2024-03-23T07:36:31;10.55;;;5.47;;
32347;SDS011;18821;44.800;10.326;2024-03-23T07:38:56;8.20;;;5.00;;
32347;SDS011;18821;44.800;10.326;2024-03-23T07:41:22;14.93;;;5.15;;
32347;SDS011;18821;44.800;10.326;2024-03-23T07:43:48;9.02;;;3.47;;
32347;SDS011;18821;44.800;10.326;2024-03-23T07:46:15;6.85;;;3.80;;
32347;SDS011;18821;44.800;10.326;2024-03-23T07:48:42;4.63;;;2.95;;
32347;SDS011;18821;44.800;10.326;2024-03-23T07:51:23;5.40;;;3.40;;
32347;SDS011;18821;44.800;10.326;2024-03-23T07:53:49;7.78;;;3.90;;
32347;SDS011;18821;44.800;10.326;2024-03-23T07:56:15;5.47;;;3.28;;
32347;SDS011;18821;44.800;10.326;2024-03-23T07:58:43;7.82;;;3.33;;
32347;SDS011;18821;44.800;10.326;2024-03-23T08:01:12;11.02;;;3.55;;
32347;SDS011;18821;44.800;10.326;2024-03-23T08:03:40;12.13;;;3.25;;
32347;SDS011;18821;44.800;10.326;2024-03-23T08:08:41;4.20;;;2.72;;
32347;SDS011;18821;44.800;10.326;2024-03-23T08:11:08;7.07;;;3.20;;
32347;SDS011;18821;44.800;10.326;2024-03-23T08:13:34;10.13;;;3.28;;
32347;SDS011;18821;44.800;10.326;2024-03-23T08:16:01;5.10;;;3.40;;
32347;SDS011;18821;44.800;10.326;2024-03-23T08:18:28;5.75;;;3.42;;
32347;SDS011;18821;44.800;10.326;2024-03-23T08:20:55;3.40;;;2.53;;
32347;SDS011;18821;44.800;10.326;2024-03-23T08:23:28;4.20;;;2.75;;
32347;SDS011;18821;44.800;10.326;2024-03-23T08:25:58;16.15;;;3.20;;
32347;SDS011;18821;44.800;10.326;2024-03-23T08:28:28;5.18;;;2.45;;
32347;SDS011;18821;44.800;10.326;2024-03-23T08:30:54;10.65;;;2.83;;
32347;SDS011;18821;44.800;10.326;2024-03-23T08:33:20;6.18;;;2.83;;
32347;SDS011;18821;44.800;10.326;2024-03-23T08:36:00;11.02;;;2.60;;
32347;SDS011;18821;44.800;10.326;2024-03-23T08:38:27;8.32;;;3.38;;
32347;SDS011;18821;44.800;10.326;2024-03-23T08:41:00;6.68;;;3.00;;
32347;SDS011;18821;44.800;10.326;2024-03-23T08:43:30;7.28;;;4.28;;
32347;SDS011;18821;44.800;10.326;2024-03-23T08:46:08;9.85;;;5.20;;
32347;SDS011;18821;44.800;10.326;2024-03-23T08:48:47;10.43;;;5.80;;
32347;SDS011;18821;44.800;10.326;2024-03-23T08:51:14;9.85;;;6.32;;
32347;SDS011;18821;44.800;10.326;2024-03-23T08:53:41;11.07;;;6.45;;
32347;SDS011;18821;44.800;10.326;2024-03-23T08:56:08;11.00;;;6.60;;
32347;SDS011;18821;44.800;10.326;2024-03-23T08:58:35;12.13;;;6.80;;
32347;SDS011;18821;44.800;10.326;2024-03-23T09:01:03;26.05;;;12.55;;
32347;SDS011;18821;44.800;10.326;2024-03-23T09:03:38;24.38;;;12.15;;
32347;SDS011;18821;44.800;10.326;2024-03-23T09:06:08;27.00;;;17.55;;
32347;SDS011;18821;44.800;10.326;2024-03-23T09:08:35;28.92;;;16.42;;
32347;SDS011;18821;44.800;10.326;2024-03-23T09:11:08;29.75;;;16.38;;
32347;SDS011;18821;44.800;10.326;2024-03-23T09:13:36;30.38;;;18.95;;
32347;SDS011;18821;44.800;10.326;2024-03-23T09:16:03;35.40;;;20.20;;
32347;SDS011;18821;44.800;10.326;2024-03-23T09:18:34;34.70;;;20.17;;
32347;SDS011;18821;44.800;10.326;2024-03-23T09:21:01;39.95;;;22.27;;
32347;SDS011;18821;44.800;10.326;2024-03-23T09:23:27;32.13;;;18.38;;
32347;SDS011;18821;44.800;10.326;2024-03-23T09:25:53;33.72;;;19.85;;
32347;SDS011;18821;44.800;10.326;2024-03-23T09:28:19;38.58;;;22.60;;
32347;SDS011;18821;44.800;10.326;2024-03-23T09:30:45;42.47;;;24.73;;
32347;SDS011;18821;44.800;10.326;2024-03-23T09:33:11;42.80;;;24.63;;
32347;SDS011;18821;44.800;10.326;2024-03-23T09:35:38;39.92;;;18.00;;
32347;SDS011;18821;44.800;10.326;2024-03-23T09:38:05;48.33;;;24.17;;
32347;SDS011;18821;44.800;10.326;2024-03-23T09:40:32;44.22;;;23.67;;
32347;SDS011;18821;44.800;10.326;2024-03-23T09:42:58;54.67;;;28.25;;
32347;SDS011;18821;44.800;10.326;2024-03-23T09:45:28;43.28;;;23.67;;
32347;SDS011;18821;44.800;10.326;2024-03-23T09:47:55;39.67;;;22.45;;
32347;SDS011;18821;44.800;10.326;2024-03-23T09:50:21;43.42;;;21.65;;
32347;SDS011;18821;44.800;10.326;2024-03-23T09:52:48;45.42;;;23.65;;
32347;SDS011;18821;44.800;10.326;2024-03-23T09:55:14;38.28;;;18.45;;
32347;SDS011;18821;44.800;10.326;2024-03-23T09:57:41;48.13;;;27.90;;
32347;SDS011;18821;44.800;10.326;2024-03-23T10:00:07;57.45;;;31.42;;
32347;SDS011;18821;44.800;10.326;2024-03-23T10:02:34;56.50;;;30.80;;
32347;SDS011;18821;44.800;10.326;2024-03-23T10:05:00;52.17;;;25.38;;
32347;SDS011;18821;44.800;10.326;2024-03-23T10:07:27;56.10;;;30.20;;
32347;SDS011;18821;44.800;10.326;2024-03-23T10:09:55;58.47;;;31.10;;
32347;SDS011;18821;44.800;10.326;2024-03-23T10:12:22;63.88;;;32.47;;
32347;SDS011;18821;44.800;10.326;2024-03-23T10:14:49;56.17;;;30.48;;
32347;SDS011;18821;44.800;10.326;2024-03-23T10:17:22;57.20;;;30.25;;
32347;SDS011;18821;44.800;10.326;2024-03-23T10:19:50;68.72;;;30.83;;
32347;SDS011;18821;44.800;10.326;2024-03-23T10:22:21;47.80;;;25.77;;
32347;SDS011;18821;44.800;10.326;2024-03-23T10:24:48;48.83;;;22.70;;
32347;SDS011;18821;44.800;10.326;2024-03-23T10:27:18;62.30;;;25.00;;
32347;SDS011;18821;44.800;10.326;2024-03-23T10:29:45;34.67;;;18.20;;
32347;SDS011;18821;44.800;10.326;2024-03-23T10:32:11;50.45;;;28.02;;
32347;SDS011;18821;44.800;10.326;2024-03-23T10:34:39;52.33;;;26.40;;
32347;SDS011;18821;44.800;10.326;2024-03-23T10:37:05;54.08;;;28.08;;
32347;SDS011;18821;44.800;10.326;2024-03-23T10:39:32;45.67;;;23.17;;
32347;SDS011;18821;44.800;10.326;2024-03-23T10:42:06;51.42;;;27.30;;
32347;SDS011;18821;44.800;10.326;2024-03-23T10:44:33;45.00;;;23.55;;
32347;SDS011;18821;44.800;10.326;2024-03-23T10:46:59;47.97;;;26.30;;
32347;SDS011;18821;44.800;10.326;2024-03-23T10:49:27;56.00;;;27.83;;
32347;SDS011;18821;44.800;10.326;2024-03-23T10:51:58;47.75;;;24.10;;
32347;SDS011;18821;44.800;10.326;2024-03-23T10:54:25;53.72;;;25.88;;
32347;SDS011;18821;44.800;10.326;2024-03-23T10:56:53;58.10;;;28.90;;
32347;SDS011;18821;44.800;10.326;2024-03-23T10:59:25;44.83;;;24.95;;
32347;SDS011;18821;44.800;10.326;2024-03-23T11:01:55;39.30;;;21.92;;
32347;SDS011;18821;44.800;10.326;2024-03-23T11:04:35;36.35;;;20.48;;
32347;SDS011;18821;44.800;10.326;2024-03-23T11:09:48;47.65;;;24.95;;
32347;SDS011;18821;44.800;10.326;2024-03-23T11:14:48;41.65;;;22.92;;
32347;SDS011;18821;44.800;10.326;2024-03-23T11:17:19;32.35;;;14.65;;
32347;SDS011;18821;44.800;10.326;2024-03-23T11:19:59;15.35;;;4.53;;
32347;SDS011;18821;44.800;10.326;2024-03-23T11:22:45;8.07;;;3.28;;
32347;SDS011;18821;44.800;10.326;2024-03-23T11:27:58;6.35;;;2.90;;
32347;SDS011;18821;44.800;10.326;2024-03-23T11:30:36;10.85;;;3.47;;
32347;SDS011;18821;44.800;10.326;2024-03-23T11:33:03;8.85;;;3.38;;
32347;SDS011;18821;44.800;10.326;2024-03-23T11:35:34;16.20;;;3.20;;
32347;SDS011;18821;44.800;10.326;2024-03-23T11:38:07;8.65;;;2.75;;
32347;SDS011;18821;44.800;10.326;2024-03-23T11:40:44;11.25;;;2.70;;
32347;SDS011;18821;44.800;10.326;2024-03-23T11:43:12;8.60;;;2.40;;
32347;SDS011;18821;44.800;10.326;2024-03-23T11:45:43;11.05;;;2.55;;
32347;SDS011;18821;44.800;10.326;2024-03-23T11:48:11;15.98;;;3.00;;
32347;SDS011;18821;44.800;10.326;2024-03-23T11:50:39;12.23;;;3.53;;
32347;SDS011;18821;44.800;10.326;2024-03-23T11:58:13;14.30;;;2.65;;
32347;SDS011;18821;44.800;10.326;2024-03-23T12:00:39;9.68;;;3.25;;
32347;SDS011;18821;44.800;10.326;2024-03-23T12:03:06;9.50;;;2.95;;
32347;SDS011;18821;44.800;10.326;2024-03-23T12:05:32;6.68;;;2.83;;
32347;SDS011;18821;44.800;10.326;2024-03-23T12:08:18;6.45;;;2.50;;
32347;SDS011;18821;44.800;10.326;2024-03-23T12:11:11;8.15;;;2.80;;
32347;SDS011;18821;44.800;10.326;2024-03-23T12:13:38;10.65;;;2.72;;
32347;SDS011;18821;44.800;10.326;2024-03-23T12:16:13;6.53;;;3.05;;
32347;SDS011;18821;44.800;10.326;2024-03-23T12:18:44;6.85;;;3.05;;
32347;SDS011;18821;44.800;10.326;2024-03-23T12:21:11;6.00;;;2.55;;
32347;SDS011;18821;44.800;10.326;2024-03-23T12:23:40;8.20;;;2.85;;
32347;SDS011;18821;44.800;10.326;2024-03-23T12:26:07;3.95;;;2.20;;
32347;SDS011;18821;44.800;10.326;2024-03-23T12:28:33;7.60;;;2.58;;
32347;SDS011;18821;44.800;10.326;2024-03-23T12:30:59;17.52;;;2.20;;
32347;SDS011;18821;44.800;10.326;2024-03-23T12:33:25;6.00;;;2.42;;
32347;SDS011;18821;44.800;10.326;2024-03-23T12:35:51;7.10;;;2.63;;
32347;SDS011;18821;44.800;10.326;2024-03-23T12:38:17;7.38;;;2.03;;
32347;SDS011;18821;44.800;10.326;2024-03-23T12:40:46;3.85;;;2.22;;
32347;SDS011;18821;44.800;10.326;2024-03-23T12:43:13;7.63;;;2.17;;
32347;SDS011;18821;44.800;10.326;2024-03-23T12:45:39;4.93;;;2.13;;
32347;SDS011;18821;44.800;10.326;2024-03-23T12:48:05;8.38;;;2.55;;
32347;SDS011;18821;44.800;10.326;2024-03-23T12:50:32;10.50;;;2.45;;
32347;SDS011;18821;44.800;10.326;2024-03-23T12:52:58;8.55;;;1.92;;
32347;SDS011;18821;44.800;10.326;2024-03-23T12:55:24;7.38;;;1.73;;
32347;SDS011;18821;44.800;10.326;2024-03-23T12:57:49;9.20;;;1.80;;
32347;SDS011;18821;44.800;10.326;2024-03-23T13:00:15;8.02;;;2.17;;
32347;SDS011;18821;44.800;10.326;2024-03-23T13:02:42;4.43;;;1.70;;
32347;SDS011;18821;44.800;10.326;2024-03-23T13:05:08;2.65;;;1.48;;
32347;SDS011;18821;44.800;10.326;2024-03-23T13:07:34;5.78;;;1.80;;
32347;SDS011;18821;44.800;10.326;2024-03-23T13:10:04;3.80;;;1.58;;
32347;SDS011;18821;44.800;10.326;2024-03-23T13:12:31;8.07;;;1.92;;
32347;SDS011;18821;44.800;10.326;2024-03-23T13:14:58;7.38;;;2.90;;
32347;SDS011;18821;44.800;10.326;2024-03-23T13:17:25;6.22;;;1.55;;
32347;SDS011;18821;44.800;10.326;2024-03-23T13:19:52;6.13;;;1.90;;
32347;SDS011;18821;44.800;10.326;2024-03-23T13:22:19;7.15;;;1.98;;
32347;SDS011;18821;44.800;10.326;2024-03-23T13:24:44;8.05;;;1.63;;
32347;SDS011;18821;44.800;10.326;2024-03-23T13:27:10;5.40;;;1.70;;
32347;SDS011;18821;44.800;10.326;2024-03-23T13:29:36;5.85;;;1.65;;
32347;SDS011;18821;44.800;10.326;2024-03-23T13:32:05;7.45;;;1.98;;
32347;SDS011;18821;44.800;10.326;2024-03-23T13:34:31;5.15;;;1.77;;
32347;SDS011;18821;44.800;10.326;2024-03-23T13:36:58;5.93;;;1.85;;
32347;SDS011;18821;44.800;10.326;2024-03-23T13:39:24;5.18;;;1.30;;
32347;SDS011;18821;44.800;10.326;2024-03-23T13:41:53;5.00;;;1.55;;
32347;SDS011;18821;44.800;10.326;2024-03-23T13:44:20;4.10;;;1.65;;
32347;SDS011;18821;44.800;10.326;2024-03-23T13:46:46;3.25;;;1.60;;
32347;SDS011;18821;44.800;10.326;2024-03-23T13:51:58;5.72;;;2.15;;
32347;SDS011;18821;44.800;10.326;2024-03-23T13:54:24;8.52;;;1.83;;
32347;SDS011;18821;44.800;10.326;2024-03-23T13:56:52;9.15;;;2.65;;
32347;SDS011;18821;44.800;10.326;2024-03-23T13:59:19;10.43;;;2.50;;
32347;SDS011;18821;44.800;10.326;2024-03-23T14:01:46;7.50;;;1.25;;
32347;SDS011;18821;44.800;10.326;2024-03-23T14:04:12;9.68;;;1.85;;
32347;SDS011;18821;44.800;10.326;2024-03-23T14:06:39;16.10;;;2.00;;
32347;SDS011;18821;44.800;10.326;2024-03-23T14:09:05;4.47;;;1.60;;
32347;SDS011;18821;44.800;10.326;2024-03-23T14:11:35;10.40;;;2.15;;
32347;SDS011;18821;44.800;10.326;2024-03-23T14:14:02;13.68;;;2.35;;
32347;SDS011;18821;44.800;10.326;2024-03-23T14:16:31;7.80;;;1.95;;
32347;SDS011;18821;44.800;10.326;2024-03-23T14:18:57;5.55;;;1.85;;
32347;SDS011;18821;44.800;10.326;2024-03-23T14:21:23;4.43;;;1.33;;
32347;SDS011;18821;44.800;10.326;2024-03-23T14:23:49;4.72;;;1.67;;
32347;SDS011;18821;44.800;10.326;2024-03-23T14:26:15;7.55;;;1.70;;
32347;SDS011;18821;44.800;10.326;2024-03-23T14:28:41;6.45;;;1.85;;
32347;SDS011;18821;44.800;10.326;2024-03-23T14:31:07;7.72;;;1.65;;
32347;SDS011;18821;44.800;10.326;2024-03-23T14:33:39;6.50;;;1.80;;
32347;SDS011;18821;44.800;10.326;2024-03-23T14:36:12;12.38;;;2.22;;
32347;SDS011;18821;44.800;10.326;2024-03-23T14:38:46;8.15;;;1.90;;
32347;SDS011;18821;44.800;10.326;2024-03-23T14:41:13;4.78;;;2.08;;
32347;SDS011;18821;44.800;10.326;2024-03-23T14:43:39;3.97;;;1.40;;
32347;SDS011;18821;44.800;10.326;2024-03-23T14:48:35;4.88;;;1.73;;
32347;SDS011;18821;44.800;10.326;2024-03-23T14:51:02;4.82;;;1.52;;
32347;SDS011;18821;44.800;10.326;2024-03-23T14:53:32;7.93;;;1.88;;
32347;SDS011;18821;44.800;10.326;2024-03-23T14:56:00;5.93;;;1.77;;
32347;SDS011;18821;44.800;10.326;2024-03-23T14:58:27;9.23;;;1.70;;
32347;SDS011;18821;44.800;10.326;2024-03-23T15:00:59;8.88;;;1.70;;
32347;SDS011;18821;44.800;10.326;2024-03-23T15:03:26;8.68;;;2.05;;
32347;SDS011;18821;44.800;10.326;2024-03-23T15:05:53;8.38;;;1.67;;
32347;SDS011;18821;44.800;10.326;2024-03-23T15:08:22;3.88;;;1.15;;
32347;SDS011;18821;44.800;10.326;2024-03-23T15:10:48;6.95;;;1.77;;
32347;SDS011;18821;44.800;10.326;2024-03-23T15:13:15;6.18;;;2.40;;
32347;SDS011;18821;44.800;10.326;2024-03-23T15:15:41;4.85;;;1.60;;
32347;SDS011;18821;44.800;10.326;2024-03-23T15:18:11;7.20;;;2.00;;
32347;SDS011;18821;44.800;10.326;2024-03-23T15:20:41;5.80;;;1.60;;
32347;SDS011;18821;44.800;10.326;2024-03-23T15:23:07;3.90;;;1.45;;
32347;SDS011;18821;44.800;10.326;2024-03-23T15:25:33;3.28;;;1.15;;
32347;SDS011;18821;44.800;10.326;2024-03-23T15:27:59;4.50;;;1.45;;
32347;SDS011;18821;44.800;10.326;2024-03-23T15:30:25;2.92;;;1.17;;
32347;SDS011;18821;44.800;10.326;2024-03-23T15:32:52;4.72;;;1.92;;
32347;SDS011;18821;44.800;10.326;2024-03-23T15:35:18;4.28;;;1.23;;
32347;SDS011;18821;44.800;10.326;2024-03-23T15:37:46;6.78;;;1.27;;